Other Surface Observations
Issued by NWS Missoula, MT

Home | Current Version | Previous Version | Text Only | Print | Product List | Glossary On
Versions: 1 2 3 4 5 6 7 8 9 10 11 12 13 14 15 16 17 18 19 20 21 22 23 24 25 26 27 28 29 30 31 32 33 34 35 36 37 38 39 40 41 42 43 44 45 46 47 48 49 50
000
SXUS55 KMSO 191203
OSOMSO
MONTANA AWOS SUMMARY
NATIONAL WEATHER SERVICE MISSOULA MT
503 AM MST SAT APR 19 2014

Montana AWOS Reports

LAUREL      |K6S8 191155Z AUTO 00000KT 40SM 02/M13 A2995 RMK AO1 T00221132
ROUNDUP     |KRPX 191155Z AUTO 00000KT 40SM 02/M11 A2987 RMK AO1 T00171110
MALTA       |KM75 191155Z AUTO 25009G14KT 40SM 03/M02 A2985 RMK AO1 T00331021
EKALAKA     |K97M 191155Z AUTO 21006KT 40SM 03/M08 A2991 RMK AO1 T00281082




USA.gov is the U.S. government's official web portal to all federal, state and local government web resources and services.